createdAt,value
2023-05-10T00:01:08.572Z,6.90
2023-05-10T00:06:10.148Z,6.70
2023-05-10T00:11:11.688Z,5.80
2023-05-10T00:16:14.180Z,6.20
2023-05-10T00:21:16.141Z,4.60
2023-05-10T00:26:17.909Z,6.20
2023-05-10T00:31:19.469Z,6.20
2023-05-10T00:36:21.858Z,5.90
2023-05-10T00:41:23.852Z,5.50
2023-05-10T00:46:26.864Z,5.60
2023-05-10T00:51:28.841Z,6.00
2023-05-10T00:56:31.031Z,5.30
2023-05-10T01:01:33.169Z,6.60
2023-05-10T01:06:34.751Z,4.00
2023-05-10T01:11:39.342Z,5.30
2023-05-10T01:16:43.218Z,5.40
2023-05-10T01:27:18.565Z,4.20
2023-05-10T01:32:38.759Z,5.40
2023-05-10T01:37:52.475Z,5.50
2023-05-10T01:43:03.606Z,4.00
2023-05-10T01:48:09.916Z,4.20
2023-05-10T01:53:14.142Z,4.30
2023-05-10T01:58:21.278Z,4.30
2023-05-10T02:03:25.912Z,4.60
2023-05-10T02:08:27.786Z,4.60
2023-05-10T02:13:32.727Z,4.40
2023-05-10T02:18:37.730Z,4.70
2023-05-10T02:23:39.982Z,4.10
2023-05-10T02:28:43.352Z,3.90
2023-05-10T02:33:47.055Z,4.80
2023-05-10T02:38:51.428Z,4.40
2023-05-10T02:43:57.437Z,5.10
2023-05-10T02:48:59.136Z,6.40
2023-05-10T02:54:13.117Z,5.30
2023-05-10T02:59:15.049Z,4.60
2023-05-10T03:04:16.614Z,5.20
2023-05-10T03:09:18.182Z,4.80
2023-05-10T03:14:57.315Z,4.20
2023-05-10T03:20:10.966Z,4.50
2023-05-10T03:25:14.545Z,5.80
2023-05-10T03:30:23.723Z,4.80
2023-05-10T03:35:25.267Z,6.20
2023-05-10T03:40:29.901Z,5.60
2023-05-10T03:45:31.904Z,5.60
2023-05-10T03:50:33.409Z,7.50
2023-05-10T03:55:37.161Z,5.30
2023-05-10T04:00:50.731Z,6.30
2023-05-10T04:06:01.071Z,5.30
2023-05-10T04:11:09.964Z,4.70
2023-05-10T04:16:11.484Z,5.20
2023-05-10T04:21:14.635Z,4.90
2023-05-10T04:26:16.252Z,4.20
2023-05-10T04:31:18.315Z,4.70
2023-05-10T04:36:19.957Z,5.60
2023-05-10T04:41:21.717Z,4.80
2023-05-10T04:46:23.456Z,5.00
2023-05-10T04:51:25.071Z,5.00
2023-05-10T04:56:26.569Z,5.00
2023-05-10T05:01:28.185Z,5.00
2023-05-10T05:06:29.882Z,4.60
2023-05-10T05:11:31.355Z,4.60
2023-05-10T05:16:33.462Z,4.90
2023-05-10T05:21:35.068Z,4.30
2023-05-10T05:26:37.605Z,4.50
2023-05-10T05:31:39.161Z,5.40
2023-05-10T05:36:40.853Z,5.60
2023-05-10T05:41:42.409Z,5.10
2023-05-10T05:46:43.891Z,5.80
2023-05-10T05:51:46.055Z,3.40
2023-05-10T05:56:47.571Z,4.40
2023-05-10T06:01:49.618Z,4.80
2023-05-10T06:06:51.189Z,4.90
2023-05-10T06:11:52.715Z,4.40
2023-05-10T06:16:54.218Z,4.60
2023-05-10T06:21:55.873Z,5.30
2023-05-10T06:26:57.399Z,4.70
2023-05-10T06:31:59.602Z,4.90
2023-05-10T06:37:01.164Z,4.10
2023-05-10T06:42:04.524Z,4.00
2023-05-10T06:52:07.486Z,3.80
2023-05-10T06:57:19.490Z,3.40
2023-05-10T07:02:30.515Z,3.60
2023-05-10T07:07:32.273Z,4.00
2023-05-10T07:12:34.000Z,3.60
2023-05-10T07:17:35.841Z,3.10
2023-05-10T07:22:37.469Z,3.50
2023-05-10T07:27:39.025Z,2.80
2023-05-10T07:32:42.813Z,3.20
2023-05-10T07:37:44.433Z,2.70
2023-05-10T07:42:45.965Z,3.20
2023-05-10T07:47:47.583Z,2.70
2023-05-10T07:52:49.309Z,3.40
2023-05-10T07:57:50.796Z,2.90
2023-05-10T08:02:52.801Z,3.50
2023-05-10T08:07:54.392Z,2.60
2023-05-10T08:12:55.883Z,2.60
2023-05-10T08:17:57.452Z,3.10
2023-05-10T08:22:59.186Z,3.40
2023-05-10T08:28:00.697Z,2.10
2023-05-10T08:33:02.251Z,3.40
2023-05-10T08:38:03.850Z,2.90
2023-05-10T08:43:13.724Z,3.90
2023-05-10T08:48:16.331Z,3.70
2023-05-10T08:53:18.534Z,4.00
2023-05-10T08:58:20.640Z,3.00
2023-05-10T09:03:22.171Z,3.70
2023-05-10T09:08:26.848Z,3.30
2023-05-10T09:13:29.309Z,3.20
2023-05-10T09:18:30.882Z,2.70
2023-05-10T09:23:33.343Z,5.30
2023-05-10T09:28:51.170Z,2.60
2023-05-10T09:33:53.150Z,3.20
2023-05-10T09:38:54.750Z,2.70
2023-05-10T09:43:57.370Z,3.30
2023-05-10T09:49:00.211Z,2.60
2023-05-10T09:54:10.913Z,2.50
2023-05-10T09:59:13.812Z,2.60
2023-05-10T10:04:16.384Z,3.30
2023-05-10T10:09:19.533Z,3.40
2023-05-10T10:14:22.174Z,2.40
2023-05-10T10:19:23.678Z,3.60
2023-05-10T10:24:25.281Z,2.80
2023-05-10T10:29:46.593Z,6.40
2023-05-10T10:34:48.563Z,2.70
2023-05-10T10:39:51.477Z,2.40
2023-05-10T10:50:14.100Z,2.60
2023-05-10T10:55:23.278Z,2.90
2023-05-10T11:00:29.610Z,3.00
2023-05-10T11:05:36.475Z,3.40
2023-05-10T11:10:38.525Z,2.50
2023-05-10T11:15:40.977Z,3.00
2023-05-10T11:20:42.784Z,2.40
2023-05-10T11:25:45.496Z,2.90
2023-05-10T11:30:53.802Z,2.50
2023-05-10T11:35:55.413Z,3.40
2023-05-10T11:40:57.075Z,4.00
2023-05-10T11:45:58.670Z,2.70
2023-05-10T11:51:02.985Z,3.00
2023-05-10T11:56:12.538Z,2.00
2023-05-10T12:01:14.289Z,2.80
2023-05-10T12:06:17.125Z,2.60
2023-05-10T12:16:25.855Z,2.90
2023-05-10T12:21:29.376Z,3.10
2023-05-10T12:26:31.388Z,2.10
2023-05-10T12:31:33.189Z,11.40
2023-05-10T12:36:39.631Z,2.40
2023-05-10T12:41:43.535Z,3.00
2023-05-10T12:46:45.402Z,3.10
2023-05-10T12:51:47.078Z,2.30
2023-05-10T12:56:48.662Z,2.50
2023-05-10T13:01:50.322Z,3.00
2023-05-10T13:06:52.148Z,2.50
2023-05-10T13:11:55.197Z,2.10
2023-05-10T13:16:57.011Z,4.20
2023-05-10T13:21:59.205Z,2.70
2023-05-10T13:27:00.986Z,2.90
2023-05-10T13:32:02.701Z,3.00
2023-05-10T13:37:04.200Z,2.30
2023-05-10T13:42:06.064Z,2.70
2023-05-10T13:47:07.922Z,2.60
2023-05-10T13:52:11.082Z,2.40
2023-05-10T13:57:14.883Z,2.40
2023-05-10T14:02:16.532Z,2.00
2023-05-10T14:07:18.888Z,3.10
2023-05-10T14:12:20.487Z,3.30
2023-05-10T14:17:23.253Z,2.80
2023-05-10T14:22:25.095Z,2.80
2023-05-10T14:27:26.637Z,2.90
2023-05-10T14:32:28.963Z,2.50
2023-05-10T14:37:30.592Z,2.60
2023-05-10T14:42:32.374Z,2.50
2023-05-10T14:47:34.173Z,2.80
2023-05-10T14:52:35.989Z,2.70
2023-05-10T14:57:37.770Z,2.70
2023-05-10T15:02:39.682Z,2.50
2023-05-10T15:07:41.683Z,3.40
2023-05-10T15:12:43.269Z,2.30
2023-05-10T15:17:45.176Z,3.20
2023-05-10T15:22:46.737Z,2.40
2023-05-10T15:27:48.352Z,2.40
2023-05-10T15:32:50.128Z,2.30
2023-05-10T15:37:51.791Z,2.20
2023-05-10T15:42:53.312Z,2.30
2023-05-10T15:47:55.347Z,2.20
2023-05-10T15:52:56.911Z,2.50
2023-05-10T15:57:58.491Z,2.00
2023-05-10T16:03:00.047Z,3.10
2023-05-10T16:08:01.836Z,2.10
2023-05-10T16:13:03.887Z,2.40
2023-05-10T16:18:05.946Z,2.30
2023-05-10T16:23:08.006Z,2.80
2023-05-10T16:28:09.556Z,2.70
2023-05-10T16:33:11.139Z,2.90
2023-05-10T16:38:12.994Z,2.60
2023-05-10T16:43:14.618Z,3.20
2023-05-10T16:48:16.342Z,3.00
2023-05-10T16:53:18.368Z,2.50
2023-05-10T16:58:19.876Z,3.90
2023-05-10T17:03:21.745Z,2.80
2023-05-10T17:08:23.539Z,2.90
2023-05-10T17:13:25.212Z,3.40
2023-05-10T17:18:27.382Z,3.50
2023-05-10T17:23:30.427Z,3.40
2023-05-10T17:28:32.701Z,3.10
2023-05-10T17:33:34.565Z,4.00
2023-05-10T17:38:36.729Z,4.00
2023-05-10T17:43:38.401Z,3.70
2023-05-10T17:48:40.094Z,2.80
2023-05-10T17:53:42.296Z,2.90
2023-05-10T17:58:44.118Z,3.30
2023-05-10T18:03:47.126Z,2.90
2023-05-10T18:08:48.741Z,4.90
2023-05-10T18:13:50.365Z,3.40
2023-05-10T18:18:51.980Z,3.20
2023-05-10T18:23:53.942Z,5.10
2023-05-10T18:28:55.534Z,5.00
2023-05-10T18:33:57.656Z,5.30
2023-05-10T18:38:59.829Z,5.80
2023-05-10T18:44:01.963Z,3.60
2023-05-10T18:49:04.046Z,3.80
2023-05-10T18:54:06.416Z,5.30
2023-05-10T18:59:08.706Z,4.10
2023-05-10T19:04:10.500Z,3.80
2023-05-10T19:09:12.652Z,3.90
2023-05-10T19:14:14.744Z,3.80
2023-05-10T19:19:20.425Z,4.30
2023-05-10T19:24:25.002Z,4.50
2023-05-10T19:29:27.626Z,5.20
2023-05-10T19:34:30.052Z,4.70
2023-05-10T19:39:32.577Z,5.70
2023-05-10T19:44:34.165Z,5.20
2023-05-10T19:49:36.491Z,6.50
2023-05-10T19:54:38.474Z,7.00
2023-05-10T19:59:40.022Z,5.80
2023-05-10T20:04:41.508Z,6.40
2023-05-10T20:09:44.144Z,5.60
2023-05-10T20:14:45.614Z,6.00
2023-05-10T20:19:47.439Z,5.00
2023-05-10T20:24:48.944Z,6.70
2023-05-10T20:29:50.422Z,5.50
2023-05-10T20:34:51.982Z,5.20
2023-05-10T20:39:53.983Z,5.60
2023-05-10T20:44:55.765Z,6.30
2023-05-10T20:49:57.296Z,5.70
2023-05-10T20:54:58.831Z,5.60
2023-05-10T21:00:00.575Z,4.70
2023-05-10T21:05:02.080Z,5.50
2023-05-10T21:10:03.770Z,5.00
2023-05-10T21:15:05.653Z,4.70
2023-05-10T21:20:08.120Z,4.70
2023-05-10T21:25:09.988Z,5.70
2023-05-10T21:30:11.755Z,4.60
2023-05-10T21:35:13.412Z,3.80
2023-05-10T21:40:15.185Z,3.70
2023-05-10T21:45:19.718Z,4.10
2023-05-10T21:50:21.371Z,4.40
2023-05-10T21:55:24.129Z,3.90
2023-05-10T22:00:30.249Z,3.80
2023-05-10T22:05:32.724Z,4.00
2023-05-10T22:10:34.710Z,3.60
2023-05-10T22:15:36.684Z,4.00
2023-05-10T22:20:38.358Z,3.50
2023-05-10T22:25:39.937Z,3.90
2023-05-10T22:30:42.888Z,3.10
2023-05-10T22:35:44.352Z,3.40
2023-05-10T22:40:46.192Z,3.00
2023-05-10T22:45:47.664Z,3.50
2023-05-10T22:50:49.236Z,3.50
2023-05-10T22:55:51.514Z,3.00
2023-05-10T23:00:54.863Z,3.40
2023-05-10T23:05:56.424Z,3.00
2023-05-10T23:10:57.955Z,4.20
2023-05-10T23:16:06.047Z,3.00
2023-05-10T23:21:07.589Z,3.40
2023-05-10T23:26:09.470Z,3.10
2023-05-10T23:31:11.162Z,3.50
2023-05-10T23:36:12.687Z,2.80
2023-05-10T23:41:14.201Z,3.00
2023-05-10T23:46:16.092Z,3.60
2023-05-10T23:51:17.635Z,3.50
2023-05-10T23:56:19.190Z,3.00
